sensor_id;sensor_type;location;lat;lon;timestamp;temperature;humidity
64499;SHT31;51087;55.718;21.122;2022-12-29T00:01:44;5.11;99.99
64499;SHT31;51087;55.718;21.122;2022-12-29T00:04:12;5.14;99.99
64499;SHT31;51087;55.718;21.122;2022-12-29T00:06:38;5.18;99.99
64499;SHT31;51087;55.718;21.122;2022-12-29T00:09:04;5.15;99.99
64499;SHT31;51087;55.718;21.122;2022-12-29T00:11:29;5.15;99.99
64499;SHT31;51087;55.718;21.122;2022-12-29T00:13:55;5.13;99.99
64499;SHT31;51087;55.718;21.122;2022-12-29T00:16:44;5.11;99.99
64499;SHT31;51087;55.718;21.122;2022-12-29T00:19:11;5.10;99.99
64499;SHT31;51087;55.718;21.122;2022-12-29T00:21:57;5.04;99.99
64499;SHT31;51087;55.718;21.122;2022-12-29T00:24:41;4.97;99.99
64499;SHT31;51087;55.718;21.122;2022-12-29T00:27:25;5.01;99.99
64499;SHT31;51087;55.718;21.122;2022-12-29T00:30:17;4.98;99.99
64499;SHT31;51087;55.718;21.122;2022-12-29T00:33:11;4.97;99.99
64499;SHT31;51087;55.718;21.122;2022-12-29T00:39:12;5.01;99.99
64499;SHT31;51087;55.718;21.122;2022-12-29T00:42:05;4.98;99.99
64499;SHT31;51087;55.718;21.122;2022-12-29T00:44:49;5.01;99.99
64499;SHT31;51087;55.718;21.122;2022-12-29T00:47:15;5.04;99.99
64499;SHT31;51087;55.718;21.122;2022-12-29T00:49:40;5.04;99.99
64499;SHT31;51087;55.718;21.122;2022-12-29T00:52:10;5.10;99.99
64499;SHT31;51087;55.718;21.122;2022-12-29T00:54:38;5.14;99.99
64499;SHT31;51087;55.718;21.122;2022-12-29T00:57:06;5.13;99.99
64499;SHT31;51087;55.718;21.122;2022-12-29T00:59:32;5.13;99.99
64499;SHT31;51087;55.718;21.122;2022-12-29T01:01:57;5.20;99.99
64499;SHT31;51087;55.718;21.122;2022-12-29T01:04:25;5.17;99.99
64499;SHT31;51087;55.718;21.122;2022-12-29T01:06:51;5.24;99.99
64499;SHT31;51087;55.718;21.122;2022-12-29T01:09:18;5.28;99.99
64499;SHT31;51087;55.718;21.122;2022-12-29T01:12:03;5.28;99.99
64499;SHT31;51087;55.718;21.122;2022-12-29T01:14:29;5.21;99.99
64499;SHT31;51087;55.718;21.122;2022-12-29T01:16:55;5.17;99.99
64499;SHT31;51087;55.718;21.122;2022-12-29T01:19:21;5.18;99.99
64499;SHT31;51087;55.718;21.122;2022-12-29T01:21:47;5.14;99.99
64499;SHT31;51087;55.718;21.122;2022-12-29T01:24:14;5.15;99.99
64499;SHT31;51087;55.718;21.122;2022-12-29T01:26:40;5.10;99.99
64499;SHT31;51087;55.718;21.122;2022-12-29T01:29:05;5.01;99.99
64499;SHT31;51087;55.718;21.122;2022-12-29T01:31:30;5.01;99.99
64499;SHT31;51087;55.718;21.122;2022-12-29T01:33:56;4.97;99.99
64499;SHT31;51087;55.718;21.122;2022-12-29T01:36:21;4.91;99.99
64499;SHT31;51087;55.718;21.122;2022-12-29T01:38:47;4.94;99.99
64499;SHT31;51087;55.718;21.122;2022-12-29T01:41:14;4.97;99.99
64499;SHT31;51087;55.718;21.122;2022-12-29T01:43:52;5.01;99.99
64499;SHT31;51087;55.718;21.122;2022-12-29T01:49:21;5.03;99.99
64499;SHT31;51087;55.718;21.122;2022-12-29T01:52:03;5.04;99.99
64499;SHT31;51087;55.718;21.122;2022-12-29T01:54:33;5.10;99.99
64499;SHT31;51087;55.718;21.122;2022-12-29T01:57:03;5.14;99.99
64499;SHT31;51087;55.718;21.122;2022-12-29T01:59:33;5.15;99.99
64499;SHT31;51087;55.718;21.122;2022-12-29T02:01:59;5.18;99.99
64499;SHT31;51087;55.718;21.122;2022-12-29T02:04:26;5.14;99.99
64499;SHT31;51087;55.718;21.122;2022-12-29T02:06:58;5.17;99.99
64499;SHT31;51087;55.718;21.122;2022-12-29T02:09:25;5.15;99.99
64499;SHT31;51087;55.718;21.122;2022-12-29T02:11:51;5.08;99.99
64499;SHT31;51087;55.718;21.122;2022-12-29T02:14:17;5.03;99.99
64499;SHT31;51087;55.718;21.122;2022-12-29T02:27:51;4.53;99.99
64499;SHT31;51087;55.718;21.122;2022-12-29T02:32:53;4.31;99.99
64499;SHT31;51087;55.718;21.122;2022-12-29T02:43:38;4.39;99.99
64499;SHT31;51087;55.718;21.122;2022-12-29T02:46:21;4.53;99.99
64499;SHT31;51087;55.718;21.122;2022-12-29T02:48:56;4.63;99.99
64499;SHT31;51087;55.718;21.122;2022-12-29T02:51:34;4.66;99.99
64499;SHT31;51087;55.718;21.122;2022-12-29T02:54:01;4.65;99.99
64499;SHT31;51087;55.718;21.122;2022-12-29T02:56:45;4.72;99.99
64499;SHT31;51087;55.718;21.122;2022-12-29T02:59:11;4.72;99.99
64499;SHT31;51087;55.718;21.122;2022-12-29T03:02:03;4.73;99.99
64499;SHT31;51087;55.718;21.122;2022-12-29T03:13:03;4.73;99.99
64499;SHT31;51087;55.718;21.122;2022-12-29T03:19:04;4.72;99.99
64499;SHT31;51087;55.718;21.122;2022-12-29T03:21:42;4.63;99.99
64499;SHT31;51087;55.718;21.122;2022-12-29T03:24:30;4.59;99.99
64499;SHT31;51087;55.718;21.122;2022-12-29T03:26:59;4.52;99.99
64499;SHT31;51087;55.718;21.122;2022-12-29T03:29:28;4.53;99.99
64499;SHT31;51087;55.718;21.122;2022-12-29T03:31:55;4.55;99.99
64499;SHT31;51087;55.718;21.122;2022-12-29T03:34:21;4.59;99.99
64499;SHT31;51087;55.718;21.122;2022-12-29T03:36:59;4.58;99.99
64499;SHT31;51087;55.718;21.122;2022-12-29T03:39:26;4.60;99.99
64499;SHT31;51087;55.718;21.122;2022-12-29T03:41:58;4.63;99.99
64499;SHT31;51087;55.718;21.122;2022-12-29T03:44:38;4.65;99.99
64499;SHT31;51087;55.718;21.122;2022-12-29T03:47:05;4.72;99.99
64499;SHT31;51087;55.718;21.122;2022-12-29T03:49:31;4.76;99.99
64499;SHT31;51087;55.718;21.122;2022-12-29T03:51:56;4.76;99.99
64499;SHT31;51087;55.718;21.122;2022-12-29T03:54:22;4.79;99.99
64499;SHT31;51087;55.718;21.122;2022-12-29T03:56:47;4.83;99.99
64499;SHT31;51087;55.718;21.122;2022-12-29T03:59:12;4.79;99.99
64499;SHT31;51087;55.718;21.122;2022-12-29T04:01:38;4.83;99.99
64499;SHT31;51087;55.718;21.122;2022-12-29T04:04:03;4.86;99.99
64499;SHT31;51087;55.718;21.122;2022-12-29T04:06:29;4.81;99.99
64499;SHT31;51087;55.718;21.122;2022-12-29T04:08:54;4.84;99.99
64499;SHT31;51087;55.718;21.122;2022-12-29T04:11:20;4.83;99.99
64499;SHT31;51087;55.718;21.122;2022-12-29T04:13:46;4.80;99.99
64499;SHT31;51087;55.718;21.122;2022-12-29T04:16:11;4.84;99.99
64499;SHT31;51087;55.718;21.122;2022-12-29T04:18:37;4.83;99.99
64499;SHT31;51087;55.718;21.122;2022-12-29T04:21:02;4.84;99.99
64499;SHT31;51087;55.718;21.122;2022-12-29T04:23:30;4.86;99.99
64499;SHT31;51087;55.718;21.122;2022-12-29T04:25:56;4.88;99.99
64499;SHT31;51087;55.718;21.122;2022-12-29T04:28:21;4.81;99.99
64499;SHT31;51087;55.718;21.122;2022-12-29T04:30:47;4.80;99.99
64499;SHT31;51087;55.718;21.122;2022-12-29T04:33:13;4.80;99.99
64499;SHT31;51087;55.718;21.122;2022-12-29T04:35:38;4.77;99.99
64499;SHT31;51087;55.718;21.122;2022-12-29T04:38:04;4.76;99.99
64499;SHT31;51087;55.718;21.122;2022-12-29T04:40:29;4.77;99.99
64499;SHT31;51087;55.718;21.122;2022-12-29T04:42:55;4.76;99.99
64499;SHT31;51087;55.718;21.122;2022-12-29T04:45:21;4.79;99.99
64499;SHT31;51087;55.718;21.122;2022-12-29T04:47:46;4.79;99.99
64499;SHT31;51087;55.718;21.122;2022-12-29T04:50:12;4.79;99.99
64499;SHT31;51087;55.718;21.122;2022-12-29T04:52:37;4.80;99.99
64499;SHT31;51087;55.718;21.122;2022-12-29T04:55:03;4.81;99.99
64499;SHT31;51087;55.718;21.122;2022-12-29T04:57:29;4.80;99.99
64499;SHT31;51087;55.718;21.122;2022-12-29T04:59:54;4.83;99.99
64499;SHT31;51087;55.718;21.122;2022-12-29T05:02:20;4.79;99.99
64499;SHT31;51087;55.718;21.122;2022-12-29T05:04:45;4.80;99.99
64499;SHT31;51087;55.718;21.122;2022-12-29T05:07:11;4.79;99.99
64499;SHT31;51087;55.718;21.122;2022-12-29T05:09:37;4.79;99.99
64499;SHT31;51087;55.718;21.122;2022-12-29T05:12:03;4.83;99.99
64499;SHT31;51087;55.718;21.122;2022-12-29T05:14:28;4.87;99.99
64499;SHT31;51087;55.718;21.122;2022-12-29T05:16:53;4.87;99.99
64499;SHT31;51087;55.718;21.122;2022-12-29T05:19:19;4.96;99.99
64499;SHT31;51087;55.718;21.122;2022-12-29T05:21:44;4.98;99.99
64499;SHT31;51087;55.718;21.122;2022-12-29T05:24:10;4.96;99.99
64499;SHT31;51087;55.718;21.122;2022-12-29T05:26:35;5.00;99.99
64499;SHT31;51087;55.718;21.122;2022-12-29T05:29:01;5.01;99.99
64499;SHT31;51087;55.718;21.122;2022-12-29T05:31:27;5.00;99.99
64499;SHT31;51087;55.718;21.122;2022-12-29T05:33:52;5.01;99.99
64499;SHT31;51087;55.718;21.122;2022-12-29T05:36:18;5.01;99.99
64499;SHT31;51087;55.718;21.122;2022-12-29T05:38:44;5.05;99.99
64499;SHT31;51087;55.718;21.122;2022-12-29T05:41:09;5.03;99.99
64499;SHT31;51087;55.718;21.122;2022-12-29T05:43:35;5.05;99.99
64499;SHT31;51087;55.718;21.122;2022-12-29T05:46:00;5.07;99.99
64499;SHT31;51087;55.718;21.122;2022-12-29T05:48:26;5.07;99.99
64499;SHT31;51087;55.718;21.122;2022-12-29T05:50:52;5.04;99.99
64499;SHT31;51087;55.718;21.122;2022-12-29T05:53:17;5.03;99.99
64499;SHT31;51087;55.718;21.122;2022-12-29T05:55:44;5.00;99.99
64499;SHT31;51087;55.718;21.122;2022-12-29T05:58:09;5.01;99.99
64499;SHT31;51087;55.718;21.122;2022-12-29T06:00:35;5.00;99.99
64499;SHT31;51087;55.718;21.122;2022-12-29T06:03:00;4.97;99.99
64499;SHT31;51087;55.718;21.122;2022-12-29T06:05:26;4.97;99.99
64499;SHT31;51087;55.718;21.122;2022-12-29T06:07:51;5.00;99.99
64499;SHT31;51087;55.718;21.122;2022-12-29T06:10:17;5.00;99.99
64499;SHT31;51087;55.718;21.122;2022-12-29T06:12:42;5.00;99.99
64499;SHT31;51087;55.718;21.122;2022-12-29T06:15:08;5.01;99.99
64499;SHT31;51087;55.718;21.122;2022-12-29T06:17:34;5.01;99.99
64499;SHT31;51087;55.718;21.122;2022-12-29T06:19:59;5.05;99.99
64499;SHT31;51087;55.718;21.122;2022-12-29T06:22:24;5.05;99.99
64499;SHT31;51087;55.718;21.122;2022-12-29T06:24:50;5.03;99.99
64499;SHT31;51087;55.718;21.122;2022-12-29T06:27:15;5.03;99.99
64499;SHT31;51087;55.718;21.122;2022-12-29T06:29:41;5.03;99.99
64499;SHT31;51087;55.718;21.122;2022-12-29T06:32:08;4.97;99.99
64499;SHT31;51087;55.718;21.122;2022-12-29T06:34:33;4.96;99.99
64499;SHT31;51087;55.718;21.122;2022-12-29T06:36:58;4.94;99.99
64499;SHT31;51087;55.718;21.122;2022-12-29T06:39:24;4.91;99.99
64499;SHT31;51087;55.718;21.122;2022-12-29T06:41:52;4.93;99.99
64499;SHT31;51087;55.718;21.122;2022-12-29T06:44:18;4.96;99.99
64499;SHT31;51087;55.718;21.122;2022-12-29T06:46:43;4.96;99.99
64499;SHT31;51087;55.718;21.122;2022-12-29T06:49:09;4.97;99.99
64499;SHT31;51087;55.718;21.122;2022-12-29T06:51:34;4.96;99.99
64499;SHT31;51087;55.718;21.122;2022-12-29T06:53:59;4.97;99.99
64499;SHT31;51087;55.718;21.122;2022-12-29T06:56:25;4.94;99.99
64499;SHT31;51087;55.718;21.122;2022-12-29T06:58:50;4.93;99.99
64499;SHT31;51087;55.718;21.122;2022-12-29T07:01:17;4.93;99.99
64499;SHT31;51087;55.718;21.122;2022-12-29T07:03:42;4.94;99.99
64499;SHT31;51087;55.718;21.122;2022-12-29T07:06:09;4.93;99.99
64499;SHT31;51087;55.718;21.122;2022-12-29T07:08:34;4.91;99.99
64499;SHT31;51087;55.718;21.122;2022-12-29T07:11:00;4.87;99.99
64499;SHT31;51087;55.718;21.122;2022-12-29T07:13:25;4.88;99.99
64499;SHT31;51087;55.718;21.122;2022-12-29T07:15:50;4.88;99.99
64499;SHT31;51087;55.718;21.122;2022-12-29T07:18:16;4.91;99.99
64499;SHT31;51087;55.718;21.122;2022-12-29T07:20:41;4.87;99.99
64499;SHT31;51087;55.718;21.122;2022-12-29T07:23:07;4.88;99.99
64499;SHT31;51087;55.718;21.122;2022-12-29T07:25:32;4.94;99.99
64499;SHT31;51087;55.718;21.122;2022-12-29T07:28:00;4.91;99.99
64499;SHT31;51087;55.718;21.122;2022-12-29T07:30:25;4.97;99.99
64499;SHT31;51087;55.718;21.122;2022-12-29T07:32:51;4.98;99.99
64499;SHT31;51087;55.718;21.122;2022-12-29T07:35:16;4.97;99.99
64499;SHT31;51087;55.718;21.122;2022-12-29T07:37:42;4.96;99.99
64499;SHT31;51087;55.718;21.122;2022-12-29T07:40:09;4.91;99.99
64499;SHT31;51087;55.718;21.122;2022-12-29T07:42:34;4.87;99.99
64499;SHT31;51087;55.718;21.122;2022-12-29T07:45:00;4.83;99.99
64499;SHT31;51087;55.718;21.122;2022-12-29T07:47:26;4.81;99.99
64499;SHT31;51087;55.718;21.122;2022-12-29T07:49:51;4.79;99.99
64499;SHT31;51087;55.718;21.122;2022-12-29T07:52:17;4.75;99.99
64499;SHT31;51087;55.718;21.122;2022-12-29T07:54:42;4.77;99.99
64499;SHT31;51087;55.718;21.122;2022-12-29T07:57:08;4.75;99.99
64499;SHT31;51087;55.718;21.122;2022-12-29T07:59:33;4.75;99.99
64499;SHT31;51087;55.718;21.122;2022-12-29T08:01:59;4.75;99.99
64499;SHT31;51087;55.718;21.122;2022-12-29T08:04:24;4.75;99.99
64499;SHT31;51087;55.718;21.122;2022-12-29T08:06:50;4.69;99.99
64499;SHT31;51087;55.718;21.122;2022-12-29T08:09:15;4.66;99.99
64499;SHT31;51087;55.718;21.122;2022-12-29T08:11:40;4.67;99.99
64499;SHT31;51087;55.718;21.122;2022-12-29T08:14:06;4.63;99.99
64499;SHT31;51087;55.718;21.122;2022-12-29T08:16:32;4.55;99.99
64499;SHT31;51087;55.718;21.122;2022-12-29T08:18:57;4.50;99.99
64499;SHT31;51087;55.718;21.122;2022-12-29T08:21:24;4.46;99.99
64499;SHT31;51087;55.718;21.122;2022-12-29T08:23:49;4.48;99.99
64499;SHT31;51087;55.718;21.122;2022-12-29T08:26:15;4.45;99.99
64499;SHT31;51087;55.718;21.122;2022-12-29T08:28:40;4.37;99.99
64499;SHT31;51087;55.718;21.122;2022-12-29T08:31:05;4.22;99.99
64499;SHT31;51087;55.718;21.122;2022-12-29T08:33:31;4.08;99.99
64499;SHT31;51087;55.718;21.122;2022-12-29T08:36:05;3.90;99.99
64499;SHT31;51087;55.718;21.122;2022-12-29T08:38:31;3.76;99.99
64499;SHT31;51087;55.718;21.122;2022-12-29T08:40:57;3.64;99.99
64499;SHT31;51087;55.718;21.122;2022-12-29T08:43:24;3.64;99.99
64499;SHT31;51087;55.718;21.122;2022-12-29T08:45:49;3.63;99.99
64499;SHT31;51087;55.718;21.122;2022-12-29T08:48:15;3.63;99.99
64499;SHT31;51087;55.718;21.122;2022-12-29T08:50:44;3.63;99.99
64499;SHT31;51087;55.718;21.122;2022-12-29T08:53:09;3.69;99.99
64499;SHT31;51087;55.718;21.122;2022-12-29T08:55:35;3.69;99.99
64499;SHT31;51087;55.718;21.122;2022-12-29T08:58:00;3.70;99.99
64499;SHT31;51087;55.718;21.122;2022-12-29T09:00:26;3.59;99.99
64499;SHT31;51087;55.718;21.122;2022-12-29T09:02:51;3.62;99.99
64499;SHT31;51087;55.718;21.122;2022-12-29T09:05:16;3.59;99.99
64499;SHT31;51087;55.718;21.122;2022-12-29T09:07:42;3.58;99.99
64499;SHT31;51087;55.718;21.122;2022-12-29T09:10:07;3.53;99.99
64499;SHT31;51087;55.718;21.122;2022-12-29T09:12:33;3.52;99.99
64499;SHT31;51087;55.718;21.122;2022-12-29T09:14:59;3.55;99.99
64499;SHT31;51087;55.718;21.122;2022-12-29T09:17:24;3.52;99.99
64499;SHT31;51087;55.718;21.122;2022-12-29T09:20:08;3.52;99.99
64499;SHT31;51087;55.718;21.122;2022-12-29T09:22:35;3.55;99.99
64499;SHT31;51087;55.718;21.122;2022-12-29T09:25:00;3.56;99.99
64499;SHT31;51087;55.718;21.122;2022-12-29T09:27:26;3.59;99.99
64499;SHT31;51087;55.718;21.122;2022-12-29T09:29:51;3.58;99.99
64499;SHT31;51087;55.718;21.122;2022-12-29T09:32:17;3.56;99.99
64499;SHT31;51087;55.718;21.122;2022-12-29T09:34:42;3.59;99.99
64499;SHT31;51087;55.718;21.122;2022-12-29T09:37:07;3.59;99.99
64499;SHT31;51087;55.718;21.122;2022-12-29T09:39:33;3.56;99.99
64499;SHT31;51087;55.718;21.122;2022-12-29T09:45:00;3.51;99.99
64499;SHT31;51087;55.718;21.122;2022-12-29T09:47:29;3.53;99.99
64499;SHT31;51087;55.718;21.122;2022-12-29T09:49:58;3.56;99.99
64499;SHT31;51087;55.718;21.122;2022-12-29T09:52:34;3.70;99.99
64499;SHT31;51087;55.718;21.122;2022-12-29T09:55:05;3.76;99.99
64499;SHT31;51087;55.718;21.122;2022-12-29T10:00:14;3.83;99.99
64499;SHT31;51087;55.718;21.122;2022-12-29T10:02:54;3.84;99.99
64499;SHT31;51087;55.718;21.122;2022-12-29T10:05:44;3.91;99.99
64499;SHT31;51087;55.718;21.122;2022-12-29T10:08:29;3.93;99.99
64499;SHT31;51087;55.718;21.122;2022-12-29T10:16:01;3.93;99.99
64499;SHT31;51087;55.718;21.122;2022-12-29T10:21:50;3.90;99.99
64499;SHT31;51087;55.718;21.122;2022-12-29T10:24:19;3.87;99.99
64499;SHT31;51087;55.718;21.122;2022-12-29T10:26:48;3.93;99.99
64499;SHT31;51087;55.718;21.122;2022-12-29T10:29:28;3.87;99.99
64499;SHT31;51087;55.718;21.122;2022-12-29T10:34:54;3.89;99.99
64499;SHT31;51087;55.718;21.122;2022-12-29T10:37:43;3.89;99.99
64499;SHT31;51087;55.718;21.122;2022-12-29T10:40:18;3.86;99.99
64499;SHT31;51087;55.718;21.122;2022-12-29T10:42:50;3.80;99.99
64499;SHT31;51087;55.718;21.122;2022-12-29T10:45:18;3.80;99.99
64499;SHT31;51087;55.718;21.122;2022-12-29T10:48:03;3.82;99.99
64499;SHT31;51087;55.718;21.122;2022-12-29T10:50:31;3.74;99.99
64499;SHT31;51087;55.718;21.122;2022-12-29T10:53:00;3.77;99.99
64499;SHT31;51087;55.718;21.122;2022-12-29T10:55:35;3.73;99.99
64499;SHT31;51087;55.718;21.122;2022-12-29T10:58:04;3.73;99.99
64499;SHT31;51087;55.718;21.122;2022-12-29T11:00:31;3.74;99.99
64499;SHT31;51087;55.718;21.122;2022-12-29T11:08:12;3.77;99.99
64499;SHT31;51087;55.718;21.122;2022-12-29T11:10:44;3.77;99.99
64499;SHT31;51087;55.718;21.122;2022-12-29T11:13:27;3.76;99.99
64499;SHT31;51087;55.718;21.122;2022-12-29T11:15:53;3.80;99.99
64499;SHT31;51087;55.718;21.122;2022-12-29T11:18:21;3.74;99.99
64499;SHT31;51087;55.718;21.122;2022-12-29T11:20:49;3.82;99.99
64499;SHT31;51087;55.718;21.122;2022-12-29T11:23:32;3.89;99.99
64499;SHT31;51087;55.718;21.122;2022-12-29T11:26:20;3.91;99.99
64499;SHT31;51087;55.718;21.122;2022-12-29T11:31:42;3.95;99.99
64499;SHT31;51087;55.718;21.122;2022-12-29T11:34:08;4.03;99.99
64499;SHT31;51087;55.718;21.122;2022-12-29T11:36:35;4.01;99.99
64499;SHT31;51087;55.718;21.122;2022-12-29T11:39:01;4.08;99.99
64499;SHT31;51087;55.718;21.122;2022-12-29T11:41:29;4.14;99.99
64499;SHT31;51087;55.718;21.122;2022-12-29T11:44:00;4.21;99.99
64499;SHT31;51087;55.718;21.122;2022-12-29T11:46:37;4.28;99.99
64499;SHT31;51087;55.718;21.122;2022-12-29T11:49:03;4.24;99.99
64499;SHT31;51087;55.718;21.122;2022-12-29T11:54:01;4.31;99.99
64499;SHT31;51087;55.718;21.122;2022-12-29T11:56:37;4.35;99.99
64499;SHT31;51087;55.718;21.122;2022-12-29T12:02:26;4.45;99.99
64499;SHT31;51087;55.718;21.122;2022-12-29T12:05:03;4.44;99.99
64499;SHT31;51087;55.718;21.122;2022-12-29T12:07:38;4.45;99.99
64499;SHT31;51087;55.718;21.122;2022-12-29T12:10:05;4.42;99.99
64499;SHT31;51087;55.718;21.122;2022-12-29T12:13:02;4.44;99.99
64499;SHT31;51087;55.718;21.122;2022-12-29T12:15:36;4.41;99.99
64499;SHT31;51087;55.718;21.122;2022-12-29T12:18:38;4.38;99.99
64499;SHT31;51087;55.718;21.122;2022-12-29T12:26:18;4.52;99.99
64499;SHT31;51087;55.718;21.122;2022-12-29T12:28:54;4.55;99.99
64499;SHT31;51087;55.718;21.122;2022-12-29T12:34:06;4.56;99.99
64499;SHT31;51087;55.718;21.122;2022-12-29T12:37:20;4.60;99.99
64499;SHT31;51087;55.718;21.122;2022-12-29T12:39:56;4.60;99.99
64499;SHT31;51087;55.718;21.122;2022-12-29T13:02:09;4.38;99.99
64499;SHT31;51087;55.718;21.122;2022-12-29T13:07:49;4.42;99.99
64499;SHT31;51087;55.718;21.122;2022-12-29T13:13:21;4.35;99.99
64499;SHT31;51087;55.718;21.122;2022-12-29T13:21:24;4.24;99.99
64499;SHT31;51087;55.718;21.122;2022-12-29T13:26:40;4.15;99.99
64499;SHT31;51087;55.718;21.122;2022-12-29T13:31:52;4.20;99.99
64499;SHT31;51087;55.718;21.122;2022-12-29T13:34:24;4.27;99.99
64499;SHT31;51087;55.718;21.122;2022-12-29T13:37:01;4.21;99.99
64499;SHT31;51087;55.718;21.122;2022-12-29T13:39:32;4.27;99.99
64499;SHT31;51087;55.718;21.122;2022-12-29T13:41:59;4.22;99.99
64499;SHT31;51087;55.718;21.122;2022-12-29T13:44:34;4.22;99.99
64499;SHT31;51087;55.718;21.122;2022-12-29T13:47:05;4.29;99.99
64499;SHT31;51087;55.718;21.122;2022-12-29T13:49:32;4.35;99.99
64499;SHT31;51087;55.718;21.122;2022-12-29T13:52:09;4.32;99.99
64499;SHT31;51087;55.718;21.122;2022-12-29T13:58:03;4.35;99.99
64499;SHT31;51087;55.718;21.122;2022-12-29T14:00:38;4.31;99.99
64499;SHT31;51087;55.718;21.122;2022-12-29T14:06:26;4.42;99.99
64499;SHT31;51087;55.718;21.122;2022-12-29T14:09:03;4.45;99.99
64499;SHT31;51087;55.718;21.122;2022-12-29T14:11:38;4.46;99.99
64499;SHT31;51087;55.718;21.122;2022-12-29T14:14:22;4.45;99.99
64499;SHT31;51087;55.718;21.122;2022-12-29T14:16:48;4.44;99.99
64499;SHT31;51087;55.718;21.122;2022-12-29T14:19:30;4.49;99.99
64499;SHT31;51087;55.718;21.122;2022-12-29T14:22:05;4.41;99.99
64499;SHT31;51087;55.718;21.122;2022-12-29T14:34:53;4.50;99.99
64499;SHT31;51087;55.718;21.122;2022-12-29T14:39:47;4.52;99.99
64499;SHT31;51087;55.718;21.122;2022-12-29T14:42:19;4.53;99.99
64499;SHT31;51087;55.718;21.122;2022-12-29T14:45:07;4.58;99.99
64499;SHT31;51087;55.718;21.122;2022-12-29T14:47:50;4.55;99.99
64499;SHT31;51087;55.718;21.122;2022-12-29T14:50:45;4.55;99.99
64499;SHT31;51087;55.718;21.122;2022-12-29T14:56:09;4.60;99.99
64499;SHT31;51087;55.718;21.122;2022-12-29T14:58:48;4.67;99.99
64499;SHT31;51087;55.718;21.122;2022-12-29T15:01:39;4.80;99.99
64499;SHT31;51087;55.718;21.122;2022-12-29T15:04:17;4.69;99.99
64499;SHT31;51087;55.718;21.122;2022-12-29T15:06:43;4.76;99.99
64499;SHT31;51087;55.718;21.122;2022-12-29T15:12:01;4.80;99.99
64499;SHT31;51087;55.718;21.122;2022-12-29T15:14:38;4.77;99.99
64499;SHT31;51087;55.718;21.122;2022-12-29T15:19:49;4.86;99.99
64499;SHT31;51087;55.718;21.122;2022-12-29T15:22:15;4.98;99.99
64499;SHT31;51087;55.718;21.122;2022-12-29T15:24:42;5.10;99.99
64499;SHT31;51087;55.718;21.122;2022-12-29T15:27:13;5.21;99.99
64499;SHT31;51087;55.718;21.122;2022-12-29T15:29:43;5.24;99.99
64499;SHT31;51087;55.718;21.122;2022-12-29T15:34:45;5.43;99.99
64499;SHT31;51087;55.718;21.122;2022-12-29T15:37:40;5.46;99.99
64499;SHT31;51087;55.718;21.122;2022-12-29T15:40:22;5.60;99.99
64499;SHT31;51087;55.718;21.122;2022-12-29T15:45:38;5.66;99.99
64499;SHT31;51087;55.718;21.122;2022-12-29T15:48:05;5.67;99.99
64499;SHT31;51087;55.718;21.122;2022-12-29T15:50:34;5.73;99.99
64499;SHT31;51087;55.718;21.122;2022-12-29T15:53:01;5.74;99.99
64499;SHT31;51087;55.718;21.122;2022-12-29T15:55:29;5.74;99.99
64499;SHT31;51087;55.718;21.122;2022-12-29T15:57:57;5.73;99.99
64499;SHT31;51087;55.718;21.122;2022-12-29T16:00:33;5.74;99.99
64499;SHT31;51087;55.718;21.122;2022-12-29T16:03:02;5.74;99.99
64499;SHT31;51087;55.718;21.122;2022-12-29T16:05:37;5.76;99.99
64499;SHT31;51087;55.718;21.122;2022-12-29T16:08:15;5.77;99.99
64499;SHT31;51087;55.718;21.122;2022-12-29T16:10:45;5.76;99.99
64499;SHT31;51087;55.718;21.122;2022-12-29T16:13:19;5.74;99.99
64499;SHT31;51087;55.718;21.122;2022-12-29T16:15:46;5.81;99.99
64499;SHT31;51087;55.718;21.122;2022-12-29T16:18:27;5.81;99.99
64499;SHT31;51087;55.718;21.122;2022-12-29T16:20:53;5.87;99.99
64499;SHT31;51087;55.718;21.122;2022-12-29T16:23:25;5.81;99.99
64499;SHT31;51087;55.718;21.122;2022-12-29T16:25:53;5.81;99.99
64499;SHT31;51087;55.718;21.122;2022-12-29T16:28:36;5.86;99.99
64499;SHT31;51087;55.718;21.122;2022-12-29T16:31:05;5.85;99.99
64499;SHT31;51087;55.718;21.122;2022-12-29T16:36:25;5.83;99.99
64499;SHT31;51087;55.718;21.122;2022-12-29T16:38:50;5.83;99.99
64499;SHT31;51087;55.718;21.122;2022-12-29T16:41:31;5.87;99.99
64499;SHT31;51087;55.718;21.122;2022-12-29T16:44:22;5.91;99.99
64499;SHT31;51087;55.718;21.122;2022-12-29T16:49:37;5.90;99.99
64499;SHT31;51087;55.718;21.122;2022-12-29T16:52:16;5.91;99.99
64499;SHT31;51087;55.718;21.122;2022-12-29T16:54:57;5.96;99.99
64499;SHT31;51087;55.718;21.122;2022-12-29T16:57:28;5.89;99.99
64499;SHT31;51087;55.718;21.122;2022-12-29T16:59:59;5.93;99.99
64499;SHT31;51087;55.718;21.122;2022-12-29T17:02:27;5.93;99.99
64499;SHT31;51087;55.718;21.122;2022-12-29T17:04:53;5.87;99.99
64499;SHT31;51087;55.718;21.122;2022-12-29T17:07:26;5.94;99.99
64499;SHT31;51087;55.718;21.122;2022-12-29T17:09:53;5.94;99.99
64499;SHT31;51087;55.718;21.122;2022-12-29T17:12:27;5.99;99.99
64499;SHT31;51087;55.718;21.122;2022-12-29T17:15:11;6.00;99.99
64499;SHT31;51087;55.718;21.122;2022-12-29T17:22:39;5.93;99.99
64499;SHT31;51087;55.718;21.122;2022-12-29T17:25:04;5.96;99.99
64499;SHT31;51087;55.718;21.122;2022-12-29T17:30:01;5.99;99.99
64499;SHT31;51087;55.718;21.122;2022-12-29T17:32:28;5.96;99.99
64499;SHT31;51087;55.718;21.122;2022-12-29T17:34:53;6.01;99.99
64499;SHT31;51087;55.718;21.122;2022-12-29T17:37:35;6.06;99.99
64499;SHT31;51087;55.718;21.122;2022-12-29T17:40:02;6.06;99.99
64499;SHT31;51087;55.718;21.122;2022-12-29T17:42:28;6.07;99.99
64499;SHT31;51087;55.718;21.122;2022-12-29T17:44:54;6.13;99.99
64499;SHT31;51087;55.718;21.122;2022-12-29T17:47:20;6.16;99.99
64499;SHT31;51087;55.718;21.122;2022-12-29T17:49:45;6.17;99.99
64499;SHT31;51087;55.718;21.122;2022-12-29T17:52:12;6.18;99.99
64499;SHT31;51087;55.718;21.122;2022-12-29T17:54:51;6.21;99.99
64499;SHT31;51087;55.718;21.122;2022-12-29T17:57:18;6.20;99.99
64499;SHT31;51087;55.718;21.122;2022-12-29T17:59:43;6.14;99.99
64499;SHT31;51087;55.718;21.122;2022-12-29T18:02:28;6.17;99.99
64499;SHT31;51087;55.718;21.122;2022-12-29T18:04:56;6.17;99.99
64499;SHT31;51087;55.718;21.122;2022-12-29T18:07:21;6.17;99.99
64499;SHT31;51087;55.718;21.122;2022-12-29T18:09:47;6.21;99.99
64499;SHT31;51087;55.718;21.122;2022-12-29T18:12:25;6.22;99.99
64499;SHT31;51087;55.718;21.122;2022-12-29T18:14:51;6.24;99.99
64499;SHT31;51087;55.718;21.122;2022-12-29T18:17:17;6.24;99.99
64499;SHT31;51087;55.718;21.122;2022-12-29T18:19:43;6.22;99.99
64499;SHT31;51087;55.718;21.122;2022-12-29T18:22:08;6.21;99.99
64499;SHT31;51087;55.718;21.122;2022-12-29T18:24:34;6.20;99.99
64499;SHT31;51087;55.718;21.122;2022-12-29T18:26:59;6.20;99.99
64499;SHT31;51087;55.718;21.122;2022-12-29T18:29:26;6.21;99.99